createdAt,value
2018-08-03T00:00:34.948Z,30.00
2018-08-03T00:03:03.056Z,30.00
2018-08-03T00:05:31.179Z,30.10
2018-08-03T00:07:59.295Z,30.10
2018-08-03T00:10:27.547Z,30.10
2018-08-03T00:12:55.659Z,30.00
2018-08-03T00:15:23.810Z,30.00
2018-08-03T00:17:51.971Z,30.00
2018-08-03T00:20:20.103Z,29.90
2018-08-03T00:22:48.255Z,30.00
2018-08-03T00:25:16.403Z,29.90
2018-08-03T00:27:44.547Z,29.90
2018-08-03T00:30:12.704Z,29.90
2018-08-03T00:32:40.863Z,29.80
2018-08-03T00:35:08.991Z,29.70
2018-08-03T00:37:37.107Z,29.70
2018-08-03T00:40:05.291Z,29.70
2018-08-03T00:42:33.457Z,29.60
2018-08-03T00:45:01.603Z,29.60
2018-08-03T00:47:29.744Z,29.50
2018-08-03T00:49:58.679Z,29.50
2018-08-03T00:52:26.842Z,29.40
2018-08-03T00:54:55.032Z,29.40
2018-08-03T00:57:23.184Z,29.30
2018-08-03T00:59:51.438Z,29.40
2018-08-03T01:02:19.561Z,29.30
2018-08-03T01:04:47.685Z,29.30
2018-08-03T01:07:15.803Z,29.30
2018-08-03T01:09:43.916Z,29.20
2018-08-03T01:12:12.016Z,29.20
2018-08-03T01:14:40.208Z,29.20
2018-08-03T01:17:08.347Z,29.20
2018-08-03T01:19:36.467Z,29.10
2018-08-03T01:22:04.603Z,29.10
2018-08-03T01:24:32.710Z,29.10
2018-08-03T01:27:00.814Z,29.10
2018-08-03T01:29:28.929Z,29.10
2018-08-03T01:31:57.018Z,29.00
2018-08-03T01:34:25.131Z,29.00
2018-08-03T01:36:53.244Z,28.90
2018-08-03T01:39:21.350Z,28.90
2018-08-03T01:41:49.498Z,28.90
2018-08-03T01:44:17.679Z,28.80
2018-08-03T01:46:45.801Z,28.80
2018-08-03T01:49:13.919Z,28.70
2018-08-03T01:51:42.095Z,28.70
2018-08-03T01:54:10.236Z,28.70
2018-08-03T01:56:38.948Z,28.70
2018-08-03T01:59:07.646Z,28.60
2018-08-03T02:01:35.709Z,28.50
2018-08-03T02:04:03.815Z,28.50
2018-08-03T02:06:31.963Z,28.50
2018-08-03T02:09:00.059Z,28.50
2018-08-03T02:11:28.170Z,28.40
2018-08-03T02:13:56.318Z,28.30
2018-08-03T02:16:24.455Z,28.20
2018-08-03T02:18:52.588Z,28.20
2018-08-03T02:21:20.711Z,28.20
2018-08-03T02:23:48.827Z,28.20
2018-08-03T02:26:16.942Z,28.20
2018-08-03T02:28:45.092Z,28.20
2018-08-03T02:31:13.239Z,28.20
2018-08-03T02:33:41.371Z,28.20
2018-08-03T02:36:09.566Z,28.20
2018-08-03T02:38:37.691Z,28.10
2018-08-03T02:41:06.102Z,28.00
2018-08-03T02:43:34.259Z,28.00
2018-08-03T02:46:02.424Z,28.00
2018-08-03T02:48:30.600Z,28.00
2018-08-03T02:50:59.071Z,27.90
2018-08-03T02:53:27.211Z,27.90
2018-08-03T02:55:55.368Z,27.90
2018-08-03T02:58:23.546Z,27.90
2018-08-03T03:00:51.739Z,27.90
2018-08-03T03:03:19.875Z,27.90
2018-08-03T03:05:48.036Z,27.80
2018-08-03T03:08:16.184Z,27.80
2018-08-03T03:10:44.343Z,27.80
2018-08-03T03:13:12.516Z,27.80
2018-08-03T03:15:40.695Z,27.70
2018-08-03T03:18:08.823Z,27.70
2018-08-03T03:20:36.979Z,27.60
2018-08-03T03:23:05.156Z,27.60
2018-08-03T03:28:01.263Z,27.50
2018-08-03T03:37:53.193Z,27.20
2018-08-03T03:40:21.368Z,27.20
2018-08-03T03:42:49.543Z,27.20
2018-08-03T03:45:17.713Z,27.20
2018-08-03T03:47:45.867Z,27.30
2018-08-03T03:50:14.031Z,27.30
2018-08-03T03:52:42.176Z,27.20
2018-08-03T03:55:10.339Z,27.10
2018-08-03T03:57:38.478Z,27.10
2018-08-03T04:00:07.475Z,27.10
2018-08-03T04:02:35.663Z,27.10
2018-08-03T04:05:03.895Z,27.10
2018-08-03T04:09:59.969Z,27.10
2018-08-03T04:12:28.094Z,27.10
2018-08-03T04:24:47.895Z,26.90
2018-08-03T04:32:11.914Z,27.00
2018-08-03T04:44:31.772Z,27.20
2018-08-03T04:46:59.938Z,27.20
2018-08-03T04:49:28.235Z,27.20
2018-08-03T04:51:56.409Z,27.20
2018-08-03T04:54:24.589Z,27.30
2018-08-03T04:56:52.748Z,27.40
2018-08-03T04:59:20.958Z,27.40
2018-08-03T05:01:49.107Z,27.40
2018-08-03T05:06:45.251Z,27.50
2018-08-03T05:14:09.260Z,27.50
2018-08-03T05:19:05.342Z,27.50
2018-08-03T05:21:35.554Z,27.60
2018-08-03T05:24:03.755Z,27.70
2018-08-03T05:26:31.907Z,27.70
2018-08-03T05:36:23.972Z,28.00
2018-08-03T05:38:52.079Z,28.00
2018-08-03T05:56:10.077Z,28.50
2018-08-03T05:58:38.279Z,28.50
2018-08-03T06:06:07.566Z,28.70
2018-08-03T06:13:31.528Z,28.90
2018-08-03T06:15:59.679Z,29.00
2018-08-03T06:18:27.827Z,28.90
2018-08-03T06:23:23.881Z,29.00
2018-08-03T06:25:52.032Z,29.20
2018-08-03T06:30:48.153Z,29.60
2018-08-03T06:33:16.304Z,30.00
2018-08-03T06:45:36.152Z,33.10
2018-08-03T06:48:04.280Z,34.70
2018-08-03T06:53:00.381Z,37.10
2018-08-03T06:57:56.435Z,39.20
2018-08-03T07:07:48.404Z,41.40
2018-08-03T07:12:44.467Z,42.40
2018-08-03T07:22:36.525Z,44.40
2018-08-03T07:30:00.744Z,45.20
2018-08-03T07:34:56.799Z,44.60
2018-08-03T07:39:53.303Z,44.90
2018-08-03T07:42:21.491Z,44.70
2018-08-03T07:57:09.388Z,46.60
2018-08-03T07:59:37.495Z,46.90
2018-08-03T08:04:33.514Z,47.40
2018-08-03T08:21:49.955Z,48.90
2018-08-03T08:29:13.912Z,49.70
2018-08-03T08:31:42.116Z,49.80
2018-08-03T08:39:09.428Z,50.30
2018-08-03T08:41:37.616Z,50.20
2018-08-03T08:44:05.747Z,50.20
2018-08-03T08:46:33.919Z,50.50
2018-08-03T08:49:02.165Z,50.60
2018-08-03T08:51:30.301Z,50.90
2018-08-03T08:53:58.453Z,50.90
2018-08-03T08:56:26.591Z,50.90
2018-08-03T08:58:54.758Z,50.90
2018-08-03T09:01:22.922Z,50.90
2018-08-03T09:03:51.059Z,51.00
2018-08-03T09:06:19.344Z,51.20
2018-08-03T09:08:47.531Z,51.30
2018-08-03T09:11:15.700Z,51.60
2018-08-03T09:13:43.853Z,52.10
2018-08-03T09:18:39.952Z,51.90
2018-08-03T09:23:36.037Z,52.20
2018-08-03T09:26:04.200Z,52.20
2018-08-03T09:28:32.376Z,52.60
2018-08-03T09:31:00.564Z,52.30
2018-08-03T09:33:28.706Z,52.40
2018-08-03T09:38:24.802Z,52.00
2018-08-03T09:40:52.951Z,52.30
2018-08-03T09:43:21.127Z,52.50
2018-08-03T09:45:49.325Z,52.90
2018-08-03T09:48:17.488Z,53.00
2018-08-03T09:50:45.610Z,52.50
2018-08-03T09:53:13.765Z,52.20
2018-08-03T09:55:41.910Z,52.10
2018-08-03T09:58:10.079Z,52.50
2018-08-03T10:00:43.768Z,52.70
2018-08-03T10:03:11.990Z,53.10
2018-08-03T10:05:40.156Z,53.00
2018-08-03T10:13:04.299Z,53.20
2018-08-03T10:15:32.583Z,53.20
2018-08-03T10:18:00.692Z,53.20
2018-08-03T10:20:28.855Z,53.20
2018-08-03T10:22:57.018Z,53.50
2018-08-03T10:25:25.681Z,53.80
2018-08-03T10:27:53.853Z,54.30
2018-08-03T10:32:49.937Z,54.10
2018-08-03T10:35:18.139Z,54.20
2018-08-03T10:37:46.294Z,53.80
2018-08-03T10:40:14.460Z,53.80
2018-08-03T10:42:42.630Z,53.50
2018-08-03T10:45:10.750Z,53.50
2018-08-03T10:47:38.918Z,53.00
2018-08-03T10:50:07.145Z,53.00
2018-08-03T10:52:35.246Z,53.40
2018-08-03T10:55:03.427Z,53.70
2018-08-03T10:57:31.979Z,53.50
2018-08-03T11:00:00.528Z,54.00
2018-08-03T11:02:28.904Z,54.40
2018-08-03T11:04:57.415Z,54.80
2018-08-03T11:07:28.208Z,55.10
2018-08-03T11:09:56.546Z,55.00
2018-08-03T11:12:25.053Z,55.00
2018-08-03T11:14:57.553Z,55.10
2018-08-03T11:17:25.774Z,55.30
2018-08-03T11:19:53.974Z,55.30
2018-08-03T11:22:22.074Z,55.30
2018-08-03T11:24:50.201Z,52.70
2018-08-03T11:27:18.323Z,52.30
2018-08-03T11:29:46.459Z,52.80
2018-08-03T11:32:14.613Z,52.90
2018-08-03T11:34:42.737Z,52.60
2018-08-03T11:37:10.941Z,53.50
2018-08-03T11:39:39.035Z,53.80
2018-08-03T11:42:07.242Z,53.70
2018-08-03T11:44:35.382Z,53.80
2018-08-03T11:47:03.527Z,54.20
2018-08-03T11:49:32.388Z,54.30
2018-08-03T11:52:00.576Z,54.50
2018-08-03T11:54:28.701Z,54.20
2018-08-03T11:56:57.732Z,54.20
2018-08-03T12:01:54.260Z,55.30
2018-08-03T12:06:50.297Z,55.50
2018-08-03T12:09:18.450Z,55.20
2018-08-03T12:19:10.451Z,54.70
2018-08-03T12:21:38.643Z,55.30
2018-08-03T12:24:06.837Z,55.60
2018-08-03T12:26:34.980Z,55.60
2018-08-03T12:29:03.157Z,55.00
2018-08-03T12:31:31.380Z,54.40
2018-08-03T12:34:00.403Z,54.40
2018-08-03T12:36:28.525Z,54.60
2018-08-03T12:38:56.695Z,54.90
2018-08-03T12:41:24.871Z,54.40
2018-08-03T12:43:53.070Z,54.30
2018-08-03T12:46:21.297Z,54.60
2018-08-03T12:48:49.487Z,54.80
2018-08-03T12:51:17.663Z,54.30
2018-08-03T12:53:46.120Z,54.10
2018-08-03T12:56:14.279Z,53.80
2018-08-03T12:58:42.432Z,54.10
2018-08-03T13:01:10.596Z,53.20
2018-08-03T13:03:39.649Z,52.20
2018-08-03T13:06:07.775Z,49.90
2018-08-03T13:08:35.972Z,49.70
2018-08-03T13:11:04.363Z,49.80
2018-08-03T13:13:32.604Z,50.00
2018-08-03T13:16:00.774Z,50.60
2018-08-03T13:18:29.294Z,50.80
2018-08-03T13:20:57.455Z,51.60
2018-08-03T13:23:25.605Z,51.90
2018-08-03T13:25:53.843Z,52.00
2018-08-03T13:28:23.125Z,51.50
2018-08-03T13:30:51.754Z,51.60
2018-08-03T13:33:37.603Z,51.90
2018-08-03T13:36:05.772Z,52.40
2018-08-03T13:38:33.969Z,53.00
2018-08-03T13:41:02.251Z,52.50
2018-08-03T13:43:30.468Z,52.60
2018-08-03T13:45:58.593Z,53.10
2018-08-03T13:48:26.729Z,53.30
2018-08-03T13:50:54.947Z,53.40
2018-08-03T13:53:23.255Z,53.00
2018-08-03T13:56:02.839Z,53.60
2018-08-03T13:58:31.410Z,53.70
2018-08-03T14:01:12.374Z,53.20
2018-08-03T14:03:40.986Z,52.60
2018-08-03T14:06:10.184Z,52.40
2018-08-03T14:08:38.382Z,52.80
2018-08-03T14:11:06.592Z,52.70
2018-08-03T14:13:34.825Z,52.70
2018-08-03T14:16:03.409Z,52.80
2018-08-03T14:18:31.647Z,52.30
2018-08-03T14:21:00.426Z,52.30
2018-08-03T14:23:28.878Z,52.50
2018-08-03T14:25:57.035Z,52.40
2018-08-03T14:28:25.399Z,52.30
2018-08-03T14:30:53.572Z,52.30
2018-08-03T14:33:21.708Z,51.50
2018-08-03T14:35:49.835Z,50.90
2018-08-03T14:38:17.983Z,51.00
2018-08-03T14:40:46.157Z,50.90
2018-08-03T14:43:14.301Z,51.00
2018-08-03T14:45:42.439Z,49.90
2018-08-03T14:48:10.590Z,49.50
2018-08-03T14:50:38.884Z,49.60
2018-08-03T14:53:07.043Z,49.50
2018-08-03T14:55:35.191Z,49.20
2018-08-03T14:58:03.428Z,49.30
2018-08-03T15:00:31.593Z,49.00
2018-08-03T15:03:00.535Z,48.50
2018-08-03T15:05:28.663Z,48.20
2018-08-03T15:07:56.875Z,47.70
2018-08-03T15:10:24.976Z,47.40
2018-08-03T15:12:53.108Z,47.10
2018-08-03T15:15:21.266Z,47.00
2018-08-03T15:17:49.405Z,46.70
2018-08-03T15:20:17.539Z,46.40
2018-08-03T15:22:45.721Z,46.30
2018-08-03T15:25:16.242Z,46.10
2018-08-03T15:27:46.309Z,45.80
2018-08-03T15:33:00.349Z,45.80
2018-08-03T15:35:28.495Z,45.70
2018-08-03T15:37:56.620Z,45.40
2018-08-03T15:40:24.769Z,45.20
2018-08-03T15:42:52.904Z,45.10
2018-08-03T15:45:21.425Z,45.00
2018-08-03T15:47:49.595Z,45.10
2018-08-03T15:52:45.662Z,44.70
2018-08-03T15:55:13.784Z,44.00
2018-08-03T15:57:42.676Z,44.00
2018-08-03T16:00:11.059Z,44.10
2018-08-03T16:05:07.918Z,44.30
2018-08-03T16:10:05.559Z,43.90
2018-08-03T16:19:57.542Z,43.40
2018-08-03T16:24:54.342Z,43.60
2018-08-03T16:27:22.483Z,43.50
2018-08-03T16:29:50.612Z,43.60
2018-08-03T16:34:46.700Z,43.30
2018-08-03T16:37:14.880Z,43.30
2018-08-03T16:39:43.023Z,43.00
2018-08-03T16:42:11.147Z,43.00
2018-08-03T16:44:39.262Z,42.90
2018-08-03T16:49:35.428Z,43.00
2018-08-03T16:52:03.557Z,43.10
2018-08-03T16:54:31.718Z,42.30
2018-08-03T16:57:00.780Z,42.30
2018-08-03T16:59:29.098Z,42.40
2018-08-03T17:01:57.261Z,42.50
2018-08-03T17:06:53.311Z,42.30
2018-08-03T17:09:21.506Z,42.30
2018-08-03T17:11:49.638Z,42.30
2018-08-03T17:21:41.681Z,42.00
2018-08-03T17:26:38.577Z,41.90
2018-08-03T17:31:34.594Z,41.90
2018-08-03T17:34:02.742Z,41.70
2018-08-03T17:41:27.342Z,41.40
2018-08-03T17:43:55.565Z,41.30
2018-08-03T17:46:23.739Z,41.30
2018-08-03T17:48:51.881Z,41.30
2018-08-03T17:51:20.011Z,41.20
2018-08-03T17:53:48.150Z,41.20
2018-08-03T17:56:16.311Z,41.00
2018-08-03T17:58:44.447Z,41.00
2018-08-03T18:01:12.918Z,40.90
2018-08-03T18:03:41.043Z,40.80
2018-08-03T18:06:09.224Z,40.80
2018-08-03T18:08:37.377Z,40.60
2018-08-03T18:11:05.706Z,40.60
2018-08-03T18:13:33.863Z,40.50
2018-08-03T18:16:02.004Z,41.20
2018-08-03T18:18:30.140Z,40.40
2018-08-03T18:20:58.296Z,40.20
2018-08-03T18:23:26.423Z,40.20
2018-08-03T18:30:50.379Z,39.70
2018-08-03T18:35:46.471Z,39.50
2018-08-03T18:38:14.638Z,39.40
2018-08-03T18:40:42.859Z,39.20
2018-08-03T18:43:11.044Z,39.20
2018-08-03T18:48:07.059Z,39.10
2018-08-03T18:50:35.203Z,38.90
2018-08-03T18:55:31.263Z,38.80
2018-08-03T18:57:59.403Z,38.70
2018-08-03T19:05:23.348Z,38.40
2018-08-03T19:07:51.483Z,38.30
2018-08-03T19:10:19.631Z,38.10
2018-08-03T19:12:47.767Z,38.00
2018-08-03T19:17:43.866Z,37.80
2018-08-03T19:20:12.043Z,37.70
2018-08-03T19:22:40.179Z,37.70
2018-08-03T19:25:08.429Z,37.60
2018-08-03T19:27:36.586Z,37.60
2018-08-03T19:30:05.163Z,37.50
2018-08-03T19:32:33.306Z,37.50
2018-08-03T19:35:01.424Z,37.40
2018-08-03T19:37:29.573Z,37.40
2018-08-03T19:39:57.734Z,37.30
2018-08-03T19:42:25.925Z,37.20
2018-08-03T19:44:54.039Z,37.20
2018-08-03T19:47:22.168Z,37.10
2018-08-03T19:49:50.317Z,37.10
2018-08-03T19:52:18.466Z,37.00
2018-08-03T19:54:46.601Z,36.90
2018-08-03T19:57:14.727Z,36.90
2018-08-03T19:59:42.887Z,36.80
2018-08-03T20:02:11.068Z,36.80
2018-08-03T20:04:39.199Z,36.70
2018-08-03T20:07:07.357Z,36.60
2018-08-03T20:09:35.492Z,36.60
2018-08-03T20:12:03.626Z,36.50
2018-08-03T20:14:31.791Z,36.40
2018-08-03T20:16:59.900Z,36.30
2018-08-03T20:19:28.043Z,36.20
2018-08-03T20:21:56.273Z,36.20
2018-08-03T20:26:52.325Z,36.00
2018-08-03T20:31:49.264Z,35.90
2018-08-03T20:36:45.351Z,35.60
2018-08-03T20:44:10.488Z,35.40
2018-08-03T20:46:38.678Z,35.40
2018-08-03T20:49:06.890Z,35.30
2018-08-03T20:51:35.147Z,35.30
2018-08-03T20:56:31.255Z,35.20
2018-08-03T20:58:59.400Z,35.10
2018-08-03T21:01:27.550Z,35.10
2018-08-03T21:13:50.419Z,34.90
2018-08-03T21:16:18.568Z,34.90
2018-08-03T21:18:47.215Z,34.80
2018-08-03T21:23:43.318Z,34.60
2018-08-03T21:26:11.522Z,34.70
2018-08-03T21:33:36.549Z,34.60
2018-08-03T21:36:04.742Z,34.50
2018-08-03T21:38:32.901Z,34.60
2018-08-03T21:41:01.372Z,34.60
2018-08-03T21:43:29.639Z,34.60
2018-08-03T21:45:57.766Z,34.60
2018-08-03T21:48:25.937Z,34.60
2018-08-03T21:50:54.171Z,34.60
2018-08-03T21:53:22.341Z,34.50
2018-08-03T21:55:50.486Z,34.40
2018-08-03T22:00:46.523Z,34.40
2018-08-03T22:03:14.658Z,34.30
2018-08-03T22:05:42.842Z,34.20
2018-08-03T22:08:11.083Z,34.20
2018-08-03T22:10:39.207Z,34.20
2018-08-03T22:13:07.362Z,34.10
2018-08-03T22:15:35.491Z,34.00
2018-08-03T22:18:03.790Z,34.00
2018-08-03T22:20:32.008Z,34.00
2018-08-03T22:25:29.315Z,33.90
2018-08-03T22:30:25.475Z,33.60
2018-08-03T22:32:53.734Z,33.50
2018-08-03T22:35:21.992Z,33.40
2018-08-03T22:37:50.150Z,33.40
2018-08-03T22:40:18.433Z,33.30
2018-08-03T22:42:46.647Z,33.30
2018-08-03T22:52:38.667Z,33.00
2018-08-03T23:02:31.154Z,32.80
2018-08-03T23:04:59.314Z,32.70
2018-08-03T23:07:27.511Z,32.70
2018-08-03T23:14:51.546Z,32.60
2018-08-03T23:19:50.595Z,32.50
2018-08-03T23:22:19.038Z,32.30
2018-08-03T23:24:47.212Z,32.40
2018-08-03T23:29:43.288Z,32.30
2018-08-03T23:32:11.419Z,32.20
2018-08-03T23:34:39.568Z,32.20
2018-08-03T23:42:03.565Z,32.00
2018-08-03T23:44:31.691Z,32.00
2018-08-03T23:51:55.619Z,32.00
2018-08-03T23:54:23.813Z,32.00
2018-08-03T23:56:51.951Z,32.10
